Time;durP1;ratioP1;P1;durP2;ratioP2;P2;SDS_P1;SDS_P2;PMS_P1;PMS_P2;Temp;Humidity;BMP_temperature;BMP_pressure;BME280_temperature;BME280_humidity;BME280_pressure;Samples;Min_cycle;Max_cycle;Signal;HPM_P1;HPM_P2
2022/03/11 00:00:43;;;;;;;15.82;9.93;;;9.60;74.50;;;;;;5072788;28;20025;-68
2022/03/11 00:03:13;;;;;;;16.08;8.85;;;9.70;74.50;;;;;;5072749;28;20029;-67
2022/03/11 00:05:42;;;;;;;16.15;9.15;;;9.70;74.60;;;;;;5072447;28;20119;-68
2022/03/11 00:08:08;;;;;;;16.25;9.27;;;9.70;74.50;;;;;;5072938;28;20041;-68
2022/03/11 00:10:34;;;;;;;17.88;8.98;;;9.60;74.50;;;;;;5072708;28;20024;-68
2022/03/11 00:13:00;;;;;;;18.00;9.25;;;9.60;74.80;;;;;;5072993;28;20059;-68
2022/03/11 00:15:26;;;;;;;17.63;9.57;;;9.50;75.00;;;;;;5072824;28;20477;-69
2022/03/11 00:17:52;;;;;;;16.35;8.95;;;9.50;74.60;;;;;;5072886;28;20470;-68
2022/03/11 00:20:21;;;;;;;20.98;9.30;;;9.50;75.00;;;;;;5072483;28;20120;-68
2022/03/11 00:22:52;;;;;;;16.75;9.48;;;9.50;74.70;;;;;;5072573;28;20032;-68
2022/03/11 00:25:19;;;;;;;14.55;8.73;;;9.50;74.50;;;;;;5072747;28;20039;-68
2022/03/11 00:27:45;;;;;;;19.25;9.90;;;9.50;74.70;;;;;;5072517;28;20063;-68
2022/03/11 00:30:12;;;;;;;15.57;8.55;;;9.40;74.60;;;;;;5077056;28;20422;-68
2022/03/11 00:32:38;;;;;;;12.50;7.85;;;9.40;74.80;;;;;;5079428;28;20112;-68
2022/03/11 00:35:09;;;;;;;16.75;8.77;;;9.40;74.90;;;;;;5079055;28;20020;-68
2022/03/11 00:37:38;;;;;;;15.63;8.80;;;9.30;74.80;;;;;;5079382;28;20033;-68
2022/03/11 00:40:06;;;;;;;17.23;8.52;;;9.30;74.90;;;;;;5079170;28;20028;-68
2022/03/11 00:42:31;;;;;;;14.90;8.90;;;9.30;75.00;;;;;;5079338;28;20055;-67
2022/03/11 00:44:57;;;;;;;18.52;9.30;;;9.20;75.20;;;;;;5079041;28;20470;-69
2022/03/11 00:47:23;;;;;;;18.27;8.82;;;9.30;75.60;;;;;;5079247;28;20443;-68
2022/03/11 00:49:49;;;;;;;15.88;8.65;;;9.20;75.10;;;;;;5079178;28;20457;-68
2022/03/11 00:52:14;;;;;;;14.82;8.85;;;9.10;75.40;;;;;;5079481;28;20032;-68
2022/03/11 00:54:40;;;;;;;14.98;8.63;;;9.10;76.30;;;;;;5078865;28;20036;-69
2022/03/11 00:57:06;;;;;;;15.45;9.15;;;9.00;75.60;;;;;;5078957;28;20082;-68
2022/03/11 00:59:32;;;;;;;18.52;9.65;;;9.00;75.70;;;;;;5079342;28;20032;-68
2022/03/11 01:01:57;;;;;;;17.95;9.13;;;9.00;76.50;;;;;;5078938;28;20060;-68
2022/03/11 01:04:23;;;;;;;17.35;9.30;;;9.00;76.00;;;;;;5061089;28;20027;-68
2022/03/11 01:06:49;;;;;;;13.43;8.13;;;9.00;76.20;;;;;;5078815;28;20044;-68
2022/03/11 01:09:15;;;;;;;19.45;9.25;;;9.00;76.00;;;;;;5061200;28;20040;-68
2022/03/11 01:11:41;;;;;;;16.90;9.82;;;8.90;76.50;;;;;;5078707;28;20025;-68
2022/03/11 01:14:07;;;;;;;16.20;9.15;;;8.80;76.30;;;;;;5079092;28;20037;-68
2022/03/11 01:16:34;;;;;;;19.05;10.27;;;8.80;76.40;;;;;;5078628;28;20016;-69
2022/03/11 01:19:00;;;;;;;17.23;9.25;;;8.80;76.20;;;;;;5078999;28;20465;-69
2022/03/11 01:21:25;;;;;;;15.15;9.30;;;8.80;76.50;;;;;;5078620;28;20038;-68
2022/03/11 01:23:51;;;;;;;20.30;9.98;;;8.80;76.20;;;;;;5078852;28;20418;-68
2022/03/11 01:26:17;;;;;;;15.73;9.27;;;8.90;76.20;;;;;;5078712;28;20388;-68
2022/03/11 01:28:43;;;;;;;16.17;9.57;;;8.80;76.30;;;;;;5078829;28;20036;-68
2022/03/11 01:31:11;;;;;;;13.38;9.27;;;8.70;76.80;;;;;;5078583;28;20032;-68
2022/03/11 01:33:42;;;;;;;20.45;9.75;;;8.60;76.60;;;;;;5079024;28;20036;-68
2022/03/11 01:36:09;;;;;;;17.42;9.63;;;8.60;76.80;;;;;;5078666;28;20029;-68
2022/03/11 01:38:35;;;;;;;16.15;9.63;;;8.50;77.40;;;;;;5078886;28;20017;-68
2022/03/11 01:41:02;;;;;;;15.88;9.50;;;8.40;77.00;;;;;;5076476;28;20469;-68
2022/03/11 01:43:29;;;;;;;24.73;10.75;;;8.40;77.50;;;;;;5057695;28;20029;-68
2022/03/11 01:45:55;;;;;;;19.83;10.20;;;8.50;77.10;;;;;;5075073;28;20040;-68
2022/03/11 01:48:21;;;;;;;17.48;9.30;;;8.40;77.10;;;;;;5075520;28;20048;-68
2022/03/11 01:50:47;;;;;;;14.57;9.20;;;8.30;77.20;;;;;;5075339;28;20021;-68
2022/03/11 01:53:13;;;;;;;22.15;10.15;;;8.40;77.30;;;;;;5075449;28;20119;-67
2022/03/11 01:55:41;;;;;;;18.27;9.05;;;8.30;77.50;;;;;;5075426;28;20021;-67
2022/03/11 01:58:08;;;;;;;13.85;8.95;;;8.30;77.90;;;;;;5057424;28;20028;-68
2022/03/11 02:00:38;;;;;;;22.75;9.43;;;8.40;77.00;;;;;;5075103;28;20345;-67
2022/03/11 02:03:05;;;;;;;14.77;8.88;;;8.40;76.60;;;;;;5057217;28;20373;-68
2022/03/11 02:05:31;;;;;;;15.80;8.38;;;8.30;76.50;;;;;;5075129;28;20031;-68
2022/03/11 02:07:58;;;;;;;16.67;9.23;;;8.40;76.00;;;;;;5075018;28;20036;-68
2022/03/11 02:10:30;;;;;;;18.45;9.35;;;8.50;76.60;;;;;;5074930;28;20020;-68
2022/03/11 02:12:57;;;;;;;16.90;9.20;;;8.50;76.10;;;;;;5075176;28;20049;-68
2022/03/11 02:15:24;;;;;;;17.13;9.00;;;8.50;76.40;;;;;;5074671;28;20350;-69
2022/03/11 02:17:50;;;;;;;16.35;8.93;;;8.50;75.80;;;;;;5074744;28;20036;-67
2022/03/11 02:20:15;;;;;;;13.50;8.25;;;8.40;75.90;;;;;;5075080;28;20031;-68
2022/03/11 02:22:43;;;;;;;18.23;8.80;;;8.50;75.70;;;;;;5074589;28;20469;-68
2022/03/11 02:25:09;;;;;;;18.13;8.18;;;8.50;75.50;;;;;;5074820;28;20492;-68
2022/03/11 02:27:38;;;;;;;14.63;8.70;;;8.50;75.40;;;;;;5074301;28;20082;-68
2022/03/11 02:30:18;;;;;;;13.50;8.88;;;8.50;75.30;;;;;;5074413;28;20032;-68
2022/03/11 02:32:45;;;;;;;16.75;8.25;;;8.40;75.60;;;;;;5074551;28;20033;-68
2022/03/11 02:35:11;;;;;;;18.65;8.02;;;8.50;75.20;;;;;;5074593;28;20021;-68
2022/03/11 02:37:38;;;;;;;14.98;8.55;;;8.40;75.30;;;;;;5074562;28;20033;-68
2022/03/11 02:40:05;;;;;;;14.93;8.63;;;8.40;75.40;;;;;;5074553;28;20013;-68
2022/03/11 02:42:31;;;;;;;17.77;8.35;;;8.40;75.20;;;;;;5074331;28;20044;-68
2022/03/11 02:45:05;;;;;;;14.40;8.63;;;8.30;75.30;;;;;;5074202;28;20029;-68
2022/03/11 02:47:31;;;;;;;18.50;8.02;;;8.50;75.00;;;;;;5074078;28;20033;-68
2022/03/11 02:49:56;;;;;;;17.35;8.57;;;8.40;75.20;;;;;;5056286;28;20028;-68
2022/03/11 02:52:23;;;;;;;19.58;8.57;;;8.40;75.00;;;;;;5073734;28;20766;-68
2022/03/11 02:54:49;;;;;;;16.05;8.90;;;8.50;75.00;;;;;;5073843;28;20020;-67
2022/03/11 02:57:18;;;;;;;21.15;8.23;;;8.40;75.20;;;;;;5073904;28;20033;-68
2022/03/11 02:59:45;;;;;;;13.77;8.02;;;8.40;75.10;;;;;;5056657;28;20047;-67
2022/03/11 03:02:11;;;;;;;17.50;8.93;;;8.40;74.90;;;;;;5054022;28;20021;-67
2022/03/11 03:04:37;;;;;;;18.90;8.40;;;8.40;75.20;;;;;;5053992;28;20040;-68
2022/03/11 03:07:03;;;;;;;15.65;7.85;;;8.30;75.30;;;;;;5036141;28;20063;-67
2022/03/11 03:09:28;;;;;;;16.90;7.55;;;8.30;75.30;;;;;;5053999;28;20096;-67
2022/03/11 03:11:54;;;;;;;14.93;7.50;;;8.30;75.30;;;;;;5053914;28;20576;-67
2022/03/11 03:14:20;;;;;;;18.63;8.13;;;8.30;75.10;;;;;;5073559;28;20036;-67
2022/03/11 03:16:46;;;;;;;16.42;9.00;;;8.20;75.50;;;;;;5073732;28;20044;-68
2022/03/11 03:19:13;;;;;;;13.30;7.78;;;8.20;75.60;;;;;;5073667;28;20036;-68
2022/03/11 03:21:39;;;;;;;17.15;8.70;;;8.20;76.00;;;;;;5073538;28;20020;-67
2022/03/11 03:24:06;;;;;;;18.10;8.23;;;8.20;75.20;;;;;;5073542;28;20040;-67
2022/03/11 03:26:32;;;;;;;24.13;8.85;;;8.10;75.70;;;;;;5073478;28;20084;-67
2022/03/11 03:28:57;;;;;;;15.95;9.35;;;8.10;75.70;;;;;;5073039;28;20131;-68
2022/03/11 03:31:23;;;;;;;15.27;8.07;;;8.10;75.60;;;;;;5073523;28;20115;-67
2022/03/11 03:33:49;;;;;;;14.73;8.63;;;8.10;75.50;;;;;;5073396;28;20025;-67
2022/03/11 03:36:15;;;;;;;14.57;8.40;;;8.10;75.50;;;;;;5073518;28;20044;-67
2022/03/11 03:38:41;;;;;;;22.77;8.55;;;8.00;75.70;;;;;;5073232;28;20024;-67
2022/03/11 03:41:07;;;;;;;15.80;8.48;;;8.10;75.90;;;;;;5073360;28;20392;-68
2022/03/11 03:43:34;;;;;;;15.80;7.75;;;8.10;75.40;;;;;;5073030;28;20040;-67
2022/03/11 03:46:00;;;;;;;14.85;8.43;;;8.00;75.50;;;;;;5055447;28;20032;-67
2022/03/11 03:48:25;;;;;;;23.88;9.30;;;8.00;75.50;;;;;;5073163;28;20462;-68
2022/03/11 03:50:51;;;;;;;13.98;8.57;;;8.00;75.70;;;;;;5055266;28;20036;-68
2022/03/11 03:53:17;;;;;;;16.42;8.45;;;8.00;75.60;;;;;;5072864;28;20043;-68
2022/03/11 03:55:43;;;;;;;14.82;8.00;;;7.90;75.60;;;;;;5072926;28;20020;-68
2022/03/11 03:58:09;;;;;;;17.40;8.40;;;7.90;75.70;;;;;;5072889;28;20041;-68
2022/03/11 04:00:34;;;;;;;13.55;8.25;;;7.90;75.50;;;;;;5073084;28;20047;-68
2022/03/11 04:03:00;;;;;;;14.93;8.52;;;7.90;75.70;;;;;;5072896;28;20082;-67
2022/03/11 04:05:26;;;;;;;16.77;8.55;;;7.90;75.60;;;;;;5072621;28;20086;-68
2022/03/11 04:07:52;;;;;;;15.60;8.60;;;7.90;75.80;;;;;;5055072;28;20037;-68
2022/03/11 04:10:18;;;;;;;14.77;8.15;;;7.90;76.30;;;;;;5072845;28;20028;-68
2022/03/11 04:12:44;;;;;;;13.50;7.63;;;7.90;75.70;;;;;;5072714;28;20017;-68
2022/03/11 04:15:10;;;;;;;15.10;7.85;;;7.80;75.50;;;;;;5072591;28;20028;-68
2022/03/11 04:17:36;;;;;;;13.15;7.80;;;7.80;76.00;;;;;;5073066;28;20020;-68
2022/03/11 04:20:03;;;;;;;13.02;8.15;;;7.80;76.20;;;;;;5059222;28;20031;-68
2022/03/11 04:22:29;;;;;;;16.30;8.05;;;7.70;76.00;;;;;;5052752;28;20102;-68
2022/03/11 04:24:54;;;;;;;13.90;7.65;;;7.70;76.00;;;;;;5052418;28;20100;-68
2022/03/11 04:27:21;;;;;;;13.88;7.78;;;7.70;76.00;;;;;;5059705;28;20442;-68
2022/03/11 04:29:47;;;;;;;14.82;8.93;;;7.70;76.10;;;;;;5072685;28;20402;-68
2022/03/11 04:32:12;;;;;;;19.35;8.75;;;7.70;76.70;;;;;;5072832;28;20508;-68
2022/03/11 04:34:42;;;;;;;14.35;8.75;;;7.60;76.10;;;;;;5072537;28;20488;-69
2022/03/11 04:37:08;;;;;;;25.33;8.50;;;7.70;75.80;;;;;;5072586;28;20039;-67
2022/03/11 04:39:34;;;;;;;13.35;8.45;;;7.70;76.10;;;;;;5072429;28;20021;-68
2022/03/11 04:42:06;;;;;;;12.63;7.78;;;7.70;76.00;;;;;;5072525;28;20028;-68
2022/03/11 04:44:32;;;;;;;18.83;7.35;;;7.70;76.10;;;;;;5072675;28;20024;-68
2022/03/11 04:46:58;;;;;;;14.82;8.25;;;7.70;76.00;;;;;;5054648;28;20044;-68
2022/03/11 04:49:23;;;;;;;23.50;9.02;;;7.60;76.00;;;;;;5072512;28;20377;-69
2022/03/11 04:51:49;;;;;;;13.63;8.10;;;7.70;76.00;;;;;;5072250;28;20079;-68
2022/03/11 04:54:15;;;;;;;18.08;9.32;;;7.70;76.00;;;;;;5072226;28;20036;-68
2022/03/11 04:56:41;;;;;;;13.75;8.05;;;7.60;76.20;;;;;;5072226;28;20095;-68
2022/03/11 04:59:07;;;;;;;16.77;8.30;;;7.60;76.30;;;;;;5072468;28;20047;-68
2022/03/11 05:01:32;;;;;;;18.45;8.93;;;7.60;76.20;;;;;;5072363;28;20099;-68
2022/03/11 05:03:58;;;;;;;13.95;8.10;;;7.50;76.50;;;;;;5072281;28;20454;-68
2022/03/11 05:06:24;;;;;;;17.55;8.90;;;7.50;76.70;;;;;;5072125;28;20025;-68
2022/03/11 05:08:49;;;;;;;20.15;8.73;;;7.50;76.80;;;;;;5072186;28;20090;-68
2022/03/11 05:11:15;;;;;;;14.27;8.35;;;7.40;76.80;;;;;;5071964;28;20439;-68
2022/03/11 05:13:41;;;;;;;13.15;8.27;;;7.50;77.10;;;;;;5072320;28;20040;-68
2022/03/11 05:16:07;;;;;;;16.10;8.27;;;7.40;77.10;;;;;;5073192;28;20029;-68
2022/03/11 05:18:33;;;;;;;14.57;8.45;;;7.40;77.10;;;;;;5076198;28;20077;-69
2022/03/11 05:20:59;;;;;;;13.00;7.95;;;7.30;77.50;;;;;;5058088;28;20476;-68
2022/03/11 05:23:25;;;;;;;14.20;8.43;;;7.40;77.80;;;;;;5057737;28;20035;-68
2022/03/11 05:25:51;;;;;;;19.05;9.40;;;7.30;77.60;;;;;;5075678;28;20021;-68
2022/03/11 05:28:17;;;;;;;20.73;9.13;;;7.20;77.80;;;;;;5075686;28;20059;-68
2022/03/11 05:30:43;;;;;;;15.80;8.65;;;7.20;78.60;;;;;;5075740;28;20461;-68
2022/03/11 05:33:09;;;;;;;16.48;8.70;;;7.30;79.30;;;;;;5075817;28;20071;-68
2022/03/11 05:35:35;;;;;;;15.63;8.27;;;7.30;78.90;;;;;;5057837;28;20427;-68
2022/03/11 05:38:01;;;;;;;19.08;9.60;;;7.30;80.40;;;;;;5057476;28;20037;-68
2022/03/11 05:40:27;;;;;;;14.93;8.35;;;7.30;79.30;;;;;;5075778;28;20024;-68
2022/03/11 05:42:52;;;;;;;15.68;9.00;;;7.30;79.40;;;;;;5075611;28;20078;-68
2022/03/11 05:45:18;;;;;;;17.27;8.93;;;7.40;79.10;;;;;;5075506;28;20056;-68
2022/03/11 05:47:44;;;;;;;18.30;8.45;;;7.40;79.70;;;;;;5075427;28;20040;-68
2022/03/11 05:50:11;;;;;;;16.10;8.73;;;7.40;79.20;;;;;;5075495;28;20029;-69
2022/03/11 05:52:38;;;;;;;23.73;10.20;;;7.30;79.40;;;;;;5075055;28;20029;-67
2022/03/11 05:55:05;;;;;;;16.85;8.13;;;7.30;79.30;;;;;;5075314;28;20028;-68
2022/03/11 05:57:31;;;;;;;20.05;8.63;;;7.40;80.80;;;;;;5075242;28;20043;-68
2022/03/11 05:59:57;;;;;;;14.65;8.48;;;7.20;79.70;;;;;;5075333;28;20032;-68
2022/03/11 06:02:24;;;;;;;15.95;9.63;;;7.30;80.20;;;;;;5075065;28;20036;-68
2022/03/11 06:04:50;;;;;;;17.13;8.45;;;7.30;80.00;;;;;;5075273;28;20035;-70
2022/03/11 06:07:16;;;;;;;16.67;8.25;;;7.30;80.80;;;;;;5074594;28;20036;-67
2022/03/11 06:09:42;;;;;;;17.65;9.30;;;7.40;79.60;;;;;;5075165;28;20047;-68
2022/03/11 06:12:08;;;;;;;17.40;9.32;;;7.30;80.10;;;;;;5074895;28;20103;-68
2022/03/11 06:14:34;;;;;;;15.45;8.40;;;7.30;80.00;;;;;;5075345;28;20029;-68
2022/03/11 06:16:59;;;;;;;15.82;8.55;;;7.30;80.40;;;;;;5074796;28;20035;-68
2022/03/11 06:19:26;;;;;;;18.08;9.15;;;7.20;80.50;;;;;;5056950;28;20044;-68
2022/03/11 06:21:52;;;;;;;16.17;8.85;;;7.20;80.30;;;;;;5074415;28;20059;-67
2022/03/11 06:24:17;;;;;;;23.23;9.27;;;7.20;80.70;;;;;;5074936;28;20505;-68
2022/03/11 06:26:44;;;;;;;19.00;8.43;;;7.30;80.60;;;;;;5074127;28;20461;-67
2022/03/11 06:29:10;;;;;;;20.27;9.07;;;7.30;80.50;;;;;;5074777;28;20037;-67
2022/03/11 06:31:37;;;;;;;19.58;9.32;;;7.30;80.40;;;;;;5074796;28;20388;-67
2022/03/11 06:34:03;;;;;;;16.88;9.00;;;7.20;80.90;;;;;;5074291;28;20492;-67
2022/03/11 06:36:29;;;;;;;18.15;8.77;;;7.20;81.10;;;;;;5074220;28;20112;-68
2022/03/11 06:38:55;;;;;;;17.05;8.98;;;7.30;80.80;;;;;;5074296;28;20147;-68
2022/03/11 06:41:22;;;;;;;19.70;8.65;;;7.40;80.60;;;;;;5056615;28;20032;-67
2022/03/11 06:43:48;;;;;;;18.48;8.35;;;7.40;80.90;;;;;;5074419;28;20060;-68
2022/03/11 06:46:18;;;;;;;18.88;8.70;;;7.40;80.40;;;;;;5056942;28;20028;-67
2022/03/11 06:48:44;;;;;;;15.50;8.95;;;7.40;81.00;;;;;;5074239;28;20040;-68
2022/03/11 06:51:11;;;;;;;18.45;9.35;;;7.50;80.50;;;;;;5073736;28;20561;-68
2022/03/11 06:53:37;;;;;;;19.50;9.00;;;7.50;80.30;;;;;;5074010;28;20029;-68
2022/03/11 06:56:04;;;;;;;15.60;9.05;;;7.40;80.60;;;;;;5056126;28;20167;-68
2022/03/11 06:58:31;;;;;;;16.23;8.13;;;7.50;80.70;;;;;;5074114;28;20020;-68
2022/03/11 07:00:56;;;;;;;13.57;8.27;;;7.50;80.50;;;;;;5074153;28;20036;-68
2022/03/11 07:03:22;;;;;;;16.70;9.73;;;7.60;81.00;;;;;;5073847;28;20024;-67
2022/03/11 07:05:48;;;;;;;17.98;9.13;;;7.70;80.30;;;;;;5073557;28;20119;-68
2022/03/11 07:08:15;;;;;;;26.50;9.60;;;7.90;80.70;;;;;;5073782;28;20477;-68
2022/03/11 07:10:41;;;;;;;21.90;9.20;;;7.90;80.20;;;;;;5074018;28;20078;-67
2022/03/11 07:13:07;;;;;;;30.77;9.18;;;8.00;80.60;;;;;;5073877;28;20025;-67
2022/03/11 07:15:33;;;;;;;15.55;8.48;;;8.10;80.20;;;;;;5073527;28;20031;-67
2022/03/11 07:17:58;;;;;;;20.15;8.75;;;8.20;80.10;;;;;;5073704;28;20032;-67
2022/03/11 07:20:24;;;;;;;19.10;8.43;;;8.20;79.90;;;;;;5073394;28;20036;-67
2022/03/11 07:22:50;;;;;;;15.80;8.38;;;8.30;80.00;;;;;;5053628;28;20028;-68
2022/03/11 07:25:17;;;;;;;21.83;9.02;;;8.40;79.70;;;;;;5071960;28;20373;-67
2022/03/11 07:27:45;;;;;;;16.20;8.88;;;8.50;79.50;;;;;;5072302;28;20036;-68
2022/03/11 07:30:12;;;;;;;25.90;9.00;;;8.50;80.60;;;;;;5061584;28;20484;-70
2022/03/11 07:32:41;;;;;;;16.90;9.65;;;8.60;80.00;;;;;;5052422;28;20941;-68
2022/03/11 07:35:14;;;;;;;18.02;8.68;;;8.70;79.70;;;;;;5052053;28;20029;-68
2022/03/11 07:37:40;;;;;;;20.42;9.15;;;8.80;79.50;;;;;;5053042;28;20033;-68
2022/03/11 07:40:07;;;;;;;16.48;8.30;;;8.80;79.80;;;;;;5052223;28;20028;-67
2022/03/11 07:42:42;;;;;;;19.25;8.95;;;8.80;79.80;;;;;;5053255;28;20060;-68
2022/03/11 07:45:11;;;;;;;39.35;9.27;;;8.90;79.80;;;;;;5052606;28;20540;-68
2022/03/11 07:47:37;;;;;;;18.30;9.00;;;9.00;79.00;;;;;;5052507;28;20057;-68
2022/03/11 07:50:04;;;;;;;25.98;9.25;;;9.10;79.10;;;;;;5052475;28;20036;-67
2022/03/11 07:52:30;;;;;;;16.20;9.25;;;9.10;79.20;;;;;;5058775;28;20016;-67
2022/03/11 07:54:56;;;;;;;21.80;9.05;;;9.10;80.00;;;;;;5067162;28;20048;-68
2022/03/11 07:57:22;;;;;;;34.38;9.65;;;9.20;79.60;;;;;;5052613;28;20028;-68
2022/03/11 07:59:48;;;;;;;18.00;9.48;;;9.30;79.70;;;;;;5034654;28;20500;-68
2022/03/11 08:02:15;;;;;;;13.77;8.60;;;9.40;79.20;;;;;;5052621;28;20033;-68
2022/03/11 08:04:42;;;;;;;29.33;9.85;;;9.40;79.20;;;;;;5052248;28;20021;-67
2022/03/11 08:07:11;;;;;;;17.13;8.98;;;9.50;79.90;;;;;;5052642;28;20032;-67
2022/03/11 08:09:43;;;;;;;14.98;9.25;;;9.60;79.60;;;;;;5033976;28;20037;-67
2022/03/11 08:12:08;;;;;;;;;;;9.70;79.40;;;;;;5072706;28;20025;-68
2022/03/11 08:14:34;;;;;;;25.20;8.98;;;9.80;78.90;;;;;;5054808;28;20271;-68
2022/03/11 08:17:00;;;;;;;78.82;11.48;;;9.90;79.20;;;;;;5072599;28;20033;-68
2022/03/11 08:19:26;;;;;;;22.27;9.65;;;10.00;79.20;;;;;;5061041;28;20098;-67
2022/03/11 08:21:52;;;;;;;31.25;9.07;;;10.10;79.60;;;;;;5053284;28;20033;-68
2022/03/11 08:24:19;;;;;;;24.15;8.75;;;10.20;79.60;;;;;;5072151;28;20021;-69
2022/03/11 08:26:47;;;;;;;27.92;9.88;;;10.30;79.20;;;;;;5071927;28;20511;-70
2022/03/11 08:29:13;;;;;;;22.35;9.55;;;10.40;79.00;;;;;;5072234;28;20098;-70
2022/03/11 08:31:39;;;;;;;21.60;10.38;;;10.50;79.00;;;;;;5059026;28;20033;-70
2022/03/11 08:34:05;;;;;;;23.75;8.85;;;10.50;79.00;;;;;;5052307;28;20098;-70
2022/03/11 08:36:31;;;;;;;26.55;9.23;;;10.60;78.90;;;;;;5051972;28;20528;-69
2022/03/11 08:38:57;;;;;;;18.27;9.43;;;10.80;79.20;;;;;;5052250;28;20029;-69
2022/03/11 08:41:25;;;;;;;36.22;10.85;;;10.90;79.60;;;;;;5052013;28;20481;-70
2022/03/11 08:43:52;;;;;;;18.02;8.88;;;11.00;79.10;;;;;;5051977;28;20067;-69
2022/03/11 08:46:18;;;;;;;20.02;8.55;;;11.00;79.50;;;;;;5051447;28;20116;-69
2022/03/11 08:48:44;;;;;;;24.15;9.35;;;11.00;79.30;;;;;;5052205;28;20504;-69
2022/03/11 08:51:11;;;;;;;21.52;8.18;;;11.10;80.20;;;;;;5054663;28;20119;-69
2022/03/11 08:53:36;;;;;;;21.30;9.35;;;11.10;79.80;;;;;;5071359;28;20508;-69
2022/03/11 08:56:03;;;;;;;19.92;8.93;;;11.20;80.20;;;;;;5075793;28;20036;-70
2022/03/11 08:58:29;;;;;;;20.55;8.55;;;11.30;80.20;;;;;;5076027;28;20024;-70
2022/03/11 09:00:55;;;;;;;15.32;8.02;;;11.30;80.60;;;;;;5075701;28;20415;-69
2022/03/11 09:03:22;;;;;;;22.20;9.40;;;11.40;80.50;;;;;;5075562;28;20417;-68
2022/03/11 09:05:47;;;;;;;21.77;9.18;;;11.40;81.20;;;;;;5072743;28;20090;-69
2022/03/11 09:08:13;;;;;;;17.35;9.50;;;11.50;81.40;;;;;;5053205;28;20481;-68
2022/03/11 09:10:39;;;;;;;38.40;9.73;;;11.60;81.40;;;;;;5074888;28;20024;-67
2022/03/11 09:13:05;;;;;;;19.48;8.93;;;11.60;80.80;;;;;;5075750;28;20098;-68
2022/03/11 09:15:31;;;;;;;19.02;9.77;;;11.60;81.20;;;;;;5075373;28;20086;-68
2022/03/11 09:17:57;;;;;;;25.38;9.40;;;11.80;81.40;;;;;;5075652;28;20036;-68
2022/03/11 09:20:24;;;;;;;21.10;9.30;;;11.80;81.60;;;;;;5075534;28;20059;-67
2022/03/11 09:22:50;;;;;;;27.42;9.70;;;11.90;81.00;;;;;;5075240;28;20024;-67
2022/03/11 09:25:18;;;;;;;33.20;8.70;;;11.90;81.80;;;;;;5075539;28;20127;-68
2022/03/11 09:27:44;;;;;;;19.35;8.63;;;12.10;81.10;;;;;;5075099;28;20384;-68
2022/03/11 09:30:11;;;;;;;17.45;8.95;;;12.00;81.60;;;;;;5075273;28;20060;-68
2022/03/11 09:32:37;;;;;;;27.40;9.15;;;12.10;81.40;;;;;;5075322;28;20491;-68
2022/03/11 09:35:04;;;;;;;24.77;9.85;;;12.10;81.50;;;;;;5075416;28;20104;-69
2022/03/11 09:37:31;;;;;;;18.95;9.55;;;12.20;81.80;;;;;;5075688;28;20131;-68
2022/03/11 09:39:56;;;;;;;20.10;9.13;;;12.40;82.20;;;;;;5057203;28;20052;-68
2022/03/11 09:42:22;;;;;;;17.50;9.02;;;12.50;81.90;;;;;;5075382;28;20465;-68
2022/03/11 09:44:53;;;;;;;30.00;9.32;;;12.60;81.10;;;;;;5075044;28;20032;-68
2022/03/11 09:47:20;;;;;;;27.27;9.20;;;12.60;81.30;;;;;;5075174;28;20044;-68
2022/03/11 09:49:50;;;;;;;18.15;9.15;;;12.60;81.70;;;;;;5074952;28;20024;-68
2022/03/11 09:52:19;;;;;;;14.90;8.15;;;12.80;82.20;;;;;;5074947;28;20047;-68
2022/03/11 09:54:46;;;;;;;24.60;9.77;;;13.00;82.20;;;;;;5074946;28;20036;-67
2022/03/11 09:57:17;;;;;;;23.45;9.82;;;13.10;81.80;;;;;;5074945;28;20099;-68
2022/03/11 09:59:43;;;;;;;18.33;9.30;;;13.20;81.90;;;;;;5074629;28;20457;-68
2022/03/11 10:02:16;;;;;;;24.38;8.90;;;13.40;81.90;;;;;;5056119;28;20031;-68
2022/03/11 10:04:47;;;;;;;19.05;8.90;;;13.40;81.60;;;;;;5056866;28;20032;-68
2022/03/11 10:07:27;;;;;;;13.63;7.78;;;13.40;81.80;;;;;;5074329;28;20477;-68
2022/03/11 10:09:55;;;;;;;18.20;8.48;;;13.30;81.00;;;;;;5074544;28;20186;-68
2022/03/11 10:12:23;;;;;;;23.23;9.07;;;13.40;82.00;;;;;;5074579;28;20040;-69
2022/03/11 10:15:04;;;;;;;21.77;8.73;;;13.50;82.00;;;;;;5074311;28;20428;-69
2022/03/11 10:17:43;;;;;;;15.13;8.77;;;13.50;81.40;;;;;;5074533;28;20031;-69
2022/03/11 10:20:12;;;;;;;14.63;8.75;;;13.60;81.40;;;;;;5074458;28;20112;-68
2022/03/11 10:22:41;;;;;;;17.33;8.75;;;13.80;83.10;;;;;;5073791;28;20033;-69
2022/03/11 10:25:16;;;;;;;20.90;9.05;;;13.90;81.90;;;;;;5074539;28;20401;-68
2022/03/11 10:27:57;;;;;;;17.73;8.32;;;14.10;82.40;;;;;;5070296;28;20393;-68
2022/03/11 10:30:24;;;;;;;13.70;7.88;;;14.00;81.50;;;;;;5074312;28;20032;-68
2022/03/11 10:32:55;;;;;;;13.13;8.25;;;14.30;82.30;;;;;;5074070;28;20013;-68
2022/03/11 10:35:33;;;;;;;16.25;8.05;;;14.50;81.90;;;;;;5074274;28;20123;-68
2022/03/11 10:38:08;;;;;;;20.52;8.05;;;14.50;81.40;;;;;;5073640;28;20031;-69
2022/03/11 10:40:39;;;;;;;15.55;8.07;;;14.40;82.10;;;;;;5073746;28;20425;-68
2022/03/11 10:43:14;;;;;;;13.48;7.93;;;14.70;82.10;;;;;;5073801;28;20020;-68
2022/03/11 10:45:48;;;;;;;21.98;9.05;;;15.00;81.80;;;;;;5073935;28;20116;-68
2022/03/11 10:48:15;;;;;;;16.70;7.72;;;14.90;81.00;;;;;;5055868;28;20504;-68
2022/03/11 10:50:41;;;;;;;15.23;8.77;;;14.80;82.10;;;;;;5073915;28;20031;-70
2022/03/11 10:53:09;;;;;;;15.20;7.65;;;15.10;82.10;;;;;;5055012;28;20480;-69
2022/03/11 10:55:40;;;;;;;13.02;7.78;;;15.20;81.40;;;;;;5073770;28;20386;-69
2022/03/11 10:58:07;;;;;;;23.88;7.80;;;15.00;81.80;;;;;;5073285;28;20059;-70
2022/03/11 11:00:35;;;;;;;21.25;8.07;;;15.10;81.50;;;;;;5073799;28;20421;-69
2022/03/11 11:03:03;;;;;;;18.25;7.93;;;15.00;82.20;;;;;;5073401;28;20104;-69
2022/03/11 11:05:30;;;;;;;15.77;8.10;;;15.40;81.60;;;;;;5073534;28;20530;-70
2022/03/11 11:07:57;;;;;;;16.08;8.02;;;15.30;81.10;;;;;;5073333;28;20036;-69
2022/03/11 11:10:26;;;;;;;21.13;9.38;;;15.00;82.20;;;;;;5073400;28;20024;-69
2022/03/11 11:12:53;;;;;;;17.52;8.98;;;15.50;82.00;;;;;;5072757;28;20124;-69
2022/03/11 11:15:21;;;;;;;61.25;10.75;;;15.60;82.40;;;;;;5072402;28;20392;-69
2022/03/11 11:17:51;;;;;;;39.95;7.10;;;15.60;82.40;;;;;;5071486;28;20030;-69
2022/03/11 11:20:19;;;;;;;13.10;7.43;;;15.70;82.80;;;;;;5054088;28;20039;-69
2022/03/11 11:22:46;;;;;;;11.52;6.95;;;16.10;82.30;;;;;;5054292;28;20021;-69
2022/03/11 11:25:14;;;;;;;12.15;7.55;;;16.10;82.30;;;;;;5068221;28;20037;-70
2022/03/11 11:27:41;;;;;;;13.65;6.43;;;16.20;82.30;;;;;;5062446;28;20094;-69
2022/03/11 11:30:09;;;;;;;14.82;6.65;;;16.80;81.00;;;;;;5073258;28;20020;-69
2022/03/11 11:32:37;;;;;;;15.15;7.15;;;16.60;82.00;;;;;;5073474;28;20380;-69
2022/03/11 11:35:25;;;;;;;20.92;7.20;;;16.90;81.50;;;;;;5073020;28;20028;-69
2022/03/11 11:37:52;;;;;;;12.88;6.78;;;17.40;81.30;;;;;;5074739;28;20411;-69
2022/03/11 11:40:20;;;;;;;13.15;6.55;;;17.50;80.90;;;;;;5057870;28;20028;-69
2022/03/11 11:43:14;;;;;;;12.15;7.43;;;17.10;81.20;;;;;;5075221;28;20110;-69
2022/03/11 11:45:54;;;;;;;16.98;6.10;;;17.40;81.30;;;;;;5072900;28;20393;-69
2022/03/11 11:48:41;;;;;;;10.63;5.28;;;17.30;81.70;;;;;;5072894;28;20036;-68
2022/03/11 11:51:14;;;;;;;12.50;6.30;;;17.30;81.70;;;;;;5072775;28;20035;-69
2022/03/11 11:53:52;;;;;;;13.02;5.70;;;17.40;82.20;;;;;;5072667;28;20052;-68
2022/03/11 11:56:36;;;;;;;17.60;5.72;;;17.60;81.90;;;;;;5072316;28;20044;-68
2022/03/11 11:59:07;;;;;;;18.33;6.25;;;17.80;81.00;;;;;;5072656;28;20021;-69
2022/03/11 12:01:45;;;;;;;15.38;6.28;;;18.10;81.80;;;;;;5072556;28;20032;-69
2022/03/11 12:04:30;;;;;;;10.43;6.18;;;18.50;81.00;;;;;;5072545;28;20028;-69
2022/03/11 12:07:09;;;;;;;14.50;5.68;;;17.80;82.30;;;;;;5072537;28;20517;-69
2022/03/11 12:12:32;;;;;;;15.13;5.35;;;17.50;82.10;;;;;;5070437;28;20020;-68
2022/03/11 12:15:04;;;;;;;17.77;5.53;;;17.60;81.90;;;;;;5072728;28;20082;-68
2022/03/11 12:17:37;;;;;;;16.60;5.63;;;17.70;82.30;;;;;;5072532;28;20488;-68
2022/03/11 12:20:26;;;;;;;14.57;5.43;;;18.20;81.90;;;;;;5072386;28;20524;-68
2022/03/11 12:23:04;;;;;;;21.02;5.38;;;18.20;81.30;;;;;;5072496;28;20043;-69
2022/03/11 12:26:01;;;;;;;12.05;5.55;;;18.00;81.20;;;;;;5071756;28;20424;-68
2022/03/11 12:28:30;;;;;;;8.90;5.13;;;18.20;81.50;;;;;;5072554;28;20040;-69
2022/03/11 12:31:02;;;;;;;12.95;5.45;;;18.20;81.70;;;;;;5072680;28;20543;-68
2022/03/11 12:33:35;;;;;;;7.60;4.78;;;18.60;81.00;;;;;;5054667;28;20037;-69
2022/03/11 12:36:05;;;;;;;8.50;5.32;;;18.80;81.00;;;;;;5072482;28;20060;-69
2022/03/11 12:38:32;;;;;;;11.25;5.20;;;19.00;80.60;;;;;;5072426;28;20035;-68
2022/03/11 12:41:10;;;;;;;11.57;5.40;;;19.00;80.50;;;;;;5072488;28;20036;-69
2022/03/11 12:43:36;;;;;;;11.63;4.60;;;19.40;79.70;;;;;;5072390;28;20032;-69
2022/03/11 12:46:04;;;;;;;13.70;4.75;;;19.60;79.10;;;;;;5072636;28;20169;-69
2022/03/11 12:48:33;;;;;;;9.93;4.82;;;20.00;78.80;;;;;;5072568;28;20101;-69